Welch, Oklahoma
Current Conditions -  °F | °C
As of 7:35 PM on Sunday 23 Nov 2014 (Local Time) from KGMJ Reporting Station
Overcast Overcast  
Wind Chill: 50°   Ceiling: 900
Heat Index: 50°   Visibility: 10mi
Dew Point: 50°   Wind: 20mph
Humidity: 100%   Direction: 320°NW
Pressure: 29.41"   Gusts: 30mph
Location:  36.87°N, 95.1°W
Report Text: KGMJ 240135Z AUTO 32017G26KT 10SM BKN009 OVC014 10/10 A2941 RMK AO2
Loading
Personal Weather Stations






























Interactive Weather Map New forecast layout! Learn more

10-Day Weather Forecast

Advertisements
Track Severe Weather on mobile